createdAt,value
2019-02-06T00:00:13.810Z,2.69
2019-02-06T00:02:42.145Z,2.64
2019-02-06T00:05:14.390Z,2.65
2019-02-06T00:07:41.568Z,2.60
2019-02-06T00:10:10.576Z,2.60
2019-02-06T00:12:39.743Z,2.56
2019-02-06T00:15:08.297Z,2.48
2019-02-06T00:17:36.890Z,2.44
2019-02-06T00:20:07.662Z,2.38
2019-02-06T00:22:35.992Z,2.38
2019-02-06T00:25:05.434Z,2.35
2019-02-06T00:27:33.773Z,2.31
2019-02-06T00:30:03.609Z,2.28
2019-02-06T00:32:32.018Z,2.20
2019-02-06T00:35:00.526Z,2.18
2019-02-06T00:37:28.967Z,2.27
2019-02-06T00:39:59.301Z,2.24
2019-02-06T00:42:27.642Z,2.24
2019-02-06T00:44:55.982Z,2.15
2019-02-06T00:47:24.405Z,2.07
2019-02-06T00:49:52.875Z,1.99
2019-02-06T00:52:21.281Z,1.89
2019-02-06T00:54:49.772Z,1.88
2019-02-06T00:57:18.215Z,1.81
2019-02-06T00:59:46.574Z,1.73
2019-02-06T01:02:14.942Z,1.74
2019-02-06T01:04:43.320Z,1.74
2019-02-06T01:07:12.428Z,1.70
2019-02-06T01:09:41.097Z,1.78
2019-02-06T01:12:10.227Z,1.71
2019-02-06T01:14:38.769Z,1.74
2019-02-06T01:17:07.126Z,1.73
2019-02-06T01:19:35.455Z,1.76
2019-02-06T01:22:04.582Z,1.66
2019-02-06T01:24:32.931Z,1.55
2019-02-06T01:27:01.281Z,1.56
2019-02-06T01:29:29.954Z,1.55
2019-02-06T01:31:58.343Z,1.51
2019-02-06T01:34:26.682Z,1.50
2019-02-06T01:36:55.045Z,1.61
2019-02-06T01:39:23.405Z,1.57
2019-02-06T01:41:51.888Z,1.53
2019-02-06T01:44:20.244Z,1.56
2019-02-06T01:46:48.884Z,1.44
2019-02-06T01:49:17.290Z,1.41
2019-02-06T01:51:45.654Z,1.41
2019-02-06T01:54:13.986Z,1.47
2019-02-06T01:56:42.321Z,1.43
2019-02-06T01:59:11.158Z,1.41
2019-02-06T02:01:39.535Z,1.44
2019-02-06T02:04:08.265Z,1.42
2019-02-06T02:06:36.617Z,1.30
2019-02-06T02:09:08.413Z,1.16
2019-02-06T02:11:36.855Z,1.06
2019-02-06T02:14:05.712Z,1.01
2019-02-06T04:32:23.414Z,0.40
2019-02-06T04:34:52.184Z,0.45
2019-02-06T04:37:20.642Z,0.47
2019-02-06T04:39:49.026Z,0.46
2019-02-06T04:42:17.645Z,0.39
2019-02-06T04:44:46.023Z,0.25
2019-02-06T04:47:14.368Z,0.33
2019-02-06T04:49:43.189Z,0.38
2019-02-06T04:52:12.274Z,0.37
2019-02-06T04:54:40.645Z,0.38
2019-02-06T04:57:09.573Z,0.32
2019-02-06T04:59:38.080Z,0.24
2019-02-06T05:02:06.733Z,0.37
2019-02-06T05:04:35.077Z,0.29
2019-02-06T05:07:03.683Z,0.35
2019-02-06T05:09:32.023Z,0.27
2019-02-06T05:12:00.403Z,0.25
2019-02-06T05:14:28.818Z,0.28
2019-02-06T05:16:57.144Z,0.17
2019-02-06T05:19:25.488Z,0.14
2019-02-06T05:21:53.837Z,0.19
2019-02-06T05:24:22.167Z,0.21
2019-02-06T05:26:50.580Z,0.24
2019-02-06T05:29:18.930Z,0.27
2019-02-06T05:31:47.304Z,0.34
2019-02-06T05:34:15.656Z,0.21
2019-02-06T05:36:44.027Z,0.39
2019-02-06T05:39:12.908Z,0.34
2019-02-06T05:41:41.355Z,0.42
2019-02-06T05:44:10.004Z,0.35
2019-02-06T05:46:38.392Z,0.45
2019-02-06T05:49:06.787Z,0.43
2019-02-06T05:51:35.187Z,0.37
2019-02-06T05:54:03.779Z,0.32
2019-02-06T05:56:32.592Z,0.28
2019-02-06T05:59:00.987Z,0.04
2019-02-06T06:01:29.413Z,-0.01
2019-02-06T06:03:57.825Z,-0.11
2019-02-06T06:06:26.529Z,-0.17
2019-02-06T06:08:54.916Z,-0.17
2019-02-06T06:11:23.260Z,-0.21
2019-02-06T06:13:52.010Z,-0.20
2019-02-06T06:16:20.357Z,-0.20
2019-02-06T06:18:48.699Z,0.03
2019-02-06T06:21:17.054Z,0.08
2019-02-06T06:23:45.449Z,-0.01
2019-02-06T06:26:13.847Z,-0.04
2019-02-06T06:28:42.195Z,0.19
2019-02-06T06:31:10.908Z,0.23
2019-02-06T06:33:39.238Z,0.07
2019-02-06T06:36:07.561Z,-0.03
2019-02-06T06:38:35.932Z,-0.11
2019-02-06T06:41:04.389Z,-0.17
2019-02-06T06:43:33.294Z,-0.14
2019-02-06T06:46:01.655Z,-0.19
2019-02-06T06:48:30.414Z,-0.11
2019-02-06T06:50:58.741Z,0.03
2019-02-06T06:53:27.179Z,0.16
2019-02-06T06:55:55.514Z,0.21
2019-02-06T06:58:23.957Z,0.42
2019-02-06T07:00:52.359Z,0.45
2019-02-06T07:03:20.810Z,0.66
2019-02-06T07:05:49.348Z,0.70
2019-02-06T07:08:17.859Z,0.75
2019-02-06T07:10:46.453Z,0.78
2019-02-06T07:13:14.791Z,0.78
2019-02-06T07:15:43.176Z,0.92
2019-02-06T07:18:11.532Z,1.03
2019-02-06T07:20:40.285Z,1.08
2019-02-06T07:23:08.994Z,1.13
2019-02-06T07:25:37.421Z,1.01
2019-02-06T07:28:06.005Z,1.00
2019-02-06T07:30:35.628Z,0.99
2019-02-06T07:33:04.838Z,1.01
2019-02-06T07:35:33.310Z,1.05
2019-02-06T07:38:01.662Z,1.14
2019-02-06T07:40:30.084Z,1.12
2019-02-06T07:42:58.501Z,1.09
2019-02-06T07:45:26.904Z,1.12
2019-02-06T07:47:55.476Z,1.02
2019-02-06T07:50:26.866Z,1.36
2019-02-06T07:52:55.577Z,1.56
2019-02-06T07:55:24.206Z,1.58
2019-02-06T07:57:52.811Z,1.68
2019-02-06T08:00:21.253Z,1.85
2019-02-06T08:02:49.719Z,2.12
2019-02-06T08:05:19.422Z,2.31
2019-02-06T08:07:48.192Z,2.23
2019-02-06T08:10:18.226Z,2.29
2019-02-06T08:12:46.782Z,2.25
2019-02-06T08:15:17.372Z,2.58
2019-02-06T08:17:45.954Z,2.68
2019-02-06T08:20:17.552Z,2.73
2019-02-06T08:22:46.239Z,2.89
2019-02-06T08:25:16.608Z,2.98
2019-02-06T08:27:45.002Z,3.16
2019-02-06T08:30:17.301Z,3.10
2019-02-06T08:32:45.633Z,3.18
2019-02-06T08:35:14.133Z,3.08
2019-02-06T08:37:43.061Z,3.09
2019-02-06T08:40:15.205Z,3.24
2019-02-06T08:42:43.598Z,3.42
2019-02-06T08:45:13.548Z,3.56
2019-02-06T08:47:41.941Z,3.55
2019-02-06T08:50:14.141Z,3.71
2019-02-06T08:52:42.554Z,3.51
2019-02-06T08:55:15.130Z,3.66
2019-02-06T08:57:43.657Z,3.25
2019-02-06T09:00:16.376Z,3.39
2019-02-06T09:02:44.755Z,3.46
2019-02-06T09:05:13.571Z,3.52
2019-02-06T09:07:42.372Z,3.36
2019-02-06T09:10:14.442Z,3.49
2019-02-06T09:12:42.997Z,3.65
2019-02-06T09:15:11.985Z,3.67
2019-02-06T09:17:40.357Z,3.34
2019-02-06T09:20:14.621Z,3.41
2019-02-06T09:22:43.326Z,3.47
2019-02-06T09:25:15.806Z,3.56
2019-02-06T09:27:44.233Z,3.25
2019-02-06T09:30:16.683Z,3.04
2019-02-06T09:32:45.078Z,3.22
2019-02-06T09:35:13.857Z,3.45
2019-02-06T09:37:42.690Z,3.40
2019-02-06T09:40:12.739Z,3.69
2019-02-06T09:42:41.138Z,3.71
2019-02-06T09:45:11.483Z,3.43
2019-02-06T09:47:39.883Z,3.56
2019-02-06T09:50:11.262Z,3.47
2019-02-06T09:52:39.915Z,3.67
2019-02-06T09:55:09.795Z,3.99
2019-02-06T09:57:38.141Z,3.76
2019-02-06T10:00:11.240Z,3.81
2019-02-06T10:02:39.598Z,4.07
2019-02-06T10:05:10.650Z,4.39
2019-02-06T10:07:39.376Z,4.43
2019-02-06T10:10:12.749Z,4.77
2019-02-06T10:12:41.117Z,4.62
2019-02-06T10:15:12.372Z,4.57
2019-02-06T10:17:40.717Z,4.11
2019-02-06T10:20:13.334Z,4.46
2019-02-06T10:22:41.729Z,4.48
2019-02-06T10:25:10.759Z,4.39
2019-02-06T10:27:39.104Z,4.66
2019-02-06T10:30:10.385Z,5.01
2019-02-06T10:32:38.738Z,4.72
2019-02-06T10:35:08.035Z,4.62
2019-02-06T10:37:36.833Z,4.83
2019-02-06T10:40:09.468Z,4.88
2019-02-06T10:42:38.020Z,5.24
2019-02-06T10:45:09.087Z,5.12
2019-02-06T10:47:37.475Z,5.20
2019-02-06T10:50:10.892Z,5.21
2019-02-06T10:52:39.325Z,5.39
2019-02-06T10:55:08.799Z,5.43
2019-02-06T10:57:41.670Z,5.64
2019-02-06T11:00:16.044Z,5.44
2019-02-06T11:02:44.461Z,5.68
2019-02-06T11:05:13.673Z,5.48
2019-02-06T11:07:42.168Z,5.72
2019-02-06T11:10:14.232Z,5.82
2019-02-06T11:12:42.560Z,5.86
2019-02-06T11:15:12.069Z,5.96
2019-02-06T11:17:40.562Z,5.83
2019-02-06T11:20:14.062Z,5.81
2019-02-06T11:23:08.646Z,5.84
2019-02-06T11:25:37.133Z,5.34
2019-02-06T11:28:06.469Z,5.68
2019-02-06T11:30:36.837Z,5.72
2019-02-06T11:33:06.357Z,5.73
2019-02-06T11:35:34.736Z,5.80
2019-02-06T11:38:04.021Z,5.99
2019-02-06T11:40:32.527Z,6.09
2019-02-06T11:43:00.912Z,6.14
2019-02-06T11:45:31.296Z,6.20
2019-02-06T11:47:59.919Z,6.23
2019-02-06T11:50:31.185Z,6.11
2019-02-06T11:52:59.639Z,6.15
2019-02-06T11:55:30.217Z,6.11
2019-02-06T11:57:58.752Z,6.03
2019-02-06T12:00:28.218Z,6.20
2019-02-06T12:02:56.771Z,6.17
2019-02-06T12:05:25.130Z,6.22
2019-02-06T12:07:54.593Z,6.06
2019-02-06T12:10:23.382Z,5.91
2019-02-06T12:12:51.718Z,5.92
2019-02-06T12:15:20.538Z,5.98
2019-02-06T12:17:48.972Z,6.26
2019-02-06T12:20:19.630Z,6.53
2019-02-06T12:22:47.954Z,6.70
2019-02-06T12:25:18.033Z,6.72
2019-02-06T12:27:48.043Z,6.75
2019-02-06T12:30:18.595Z,6.87
2019-02-06T12:32:52.386Z,6.89
2019-02-06T12:35:17.384Z,7.10
2019-02-06T12:37:45.713Z,7.17
2019-02-06T12:40:21.772Z,7.22
2019-02-06T12:42:45.936Z,7.43
2019-02-06T12:45:16.353Z,7.52
2019-02-06T12:47:44.803Z,7.44
2019-02-06T12:50:16.518Z,7.31
2019-02-06T12:52:44.952Z,7.29
2019-02-06T12:55:19.804Z,7.53
2019-02-06T12:57:48.189Z,7.51
2019-02-06T13:00:18.740Z,7.70
2019-02-06T13:02:47.224Z,7.90
2019-02-06T13:05:16.177Z,7.48
2019-02-06T13:07:44.542Z,7.68
2019-02-06T13:10:14.858Z,7.97
2019-02-06T13:12:43.208Z,8.00
2019-02-06T13:15:15.006Z,8.03
2019-02-06T13:17:43.422Z,8.25
2019-02-06T13:20:15.136Z,8.11
2019-02-06T13:22:43.523Z,8.19
2019-02-06T13:25:13.197Z,8.32
2019-02-06T13:27:41.793Z,8.37
2019-02-06T13:30:14.994Z,8.40
2019-02-06T13:32:43.329Z,8.19
2019-02-06T13:35:14.798Z,8.25
2019-02-06T13:37:43.210Z,8.04
2019-02-06T13:40:14.331Z,8.09
2019-02-06T13:42:42.853Z,8.18
2019-02-06T13:45:14.957Z,8.09
2019-02-06T13:47:45.290Z,8.16
2019-02-06T13:50:22.027Z,8.26
2019-02-06T13:52:46.749Z,8.37
2019-02-06T13:55:16.507Z,8.30
2019-02-06T13:57:45.308Z,8.14
2019-02-06T14:00:19.528Z,8.14
2019-02-06T14:02:47.946Z,7.98
2019-02-06T14:05:17.129Z,7.85
2019-02-06T14:07:45.601Z,7.80
2019-02-06T14:10:16.244Z,7.83
2019-02-06T14:12:44.739Z,7.94
2019-02-06T14:15:17.471Z,7.86
2019-02-06T14:17:45.871Z,7.75
2019-02-06T14:20:15.956Z,7.65
2019-02-06T14:22:45.332Z,7.59
2019-02-06T14:25:19.929Z,7.59
2019-02-06T14:27:52.795Z,7.53
2019-02-06T14:30:26.574Z,7.59
2019-02-06T14:33:00.366Z,7.83
2019-02-06T14:35:33.341Z,8.05
2019-02-06T14:38:07.516Z,8.22
2019-02-06T14:40:42.662Z,8.27
2019-02-06T14:43:13.734Z,8.26
2019-02-06T14:45:47.391Z,7.96
2019-02-06T14:48:20.336Z,7.60
2019-02-06T14:50:52.099Z,7.93
2019-02-06T14:53:23.946Z,7.82
2019-02-06T14:55:57.769Z,7.78
2019-02-06T14:58:30.710Z,7.86
2019-02-06T15:01:05.532Z,7.96
2019-02-06T15:03:38.405Z,8.05
2019-02-06T15:06:11.237Z,8.00
2019-02-06T15:08:41.625Z,7.95
2019-02-06T15:11:20.121Z,8.07
2019-02-06T15:13:49.604Z,7.96
2019-02-06T15:16:26.399Z,7.95
2019-02-06T15:18:59.477Z,7.88
2019-02-06T15:21:34.552Z,7.68
2019-02-06T15:24:08.490Z,7.88
2019-02-06T15:26:42.252Z,7.83
2019-02-06T15:29:15.176Z,7.78
2019-02-06T15:31:50.881Z,7.52
2019-02-06T15:34:26.684Z,7.28
2019-02-06T15:36:56.566Z,7.14
2019-02-06T15:39:30.275Z,6.96
2019-02-06T15:42:03.152Z,7.00
2019-02-06T15:44:38.253Z,6.83
2019-02-06T15:47:12.124Z,6.84
2019-02-06T15:49:43.619Z,6.75
2019-02-06T15:52:15.600Z,6.69
2019-02-06T15:54:48.702Z,6.55
2019-02-06T15:57:22.285Z,6.41
2019-02-06T15:59:55.153Z,6.37
2019-02-06T16:02:29.842Z,6.26
2019-02-06T16:05:04.887Z,6.14
2019-02-06T16:07:38.756Z,6.08
2019-02-06T16:10:10.096Z,5.97
2019-02-06T16:12:43.162Z,5.87
2019-02-06T16:15:15.090Z,5.76
2019-02-06T16:17:47.998Z,5.71
2019-02-06T16:20:21.835Z,5.60
2019-02-06T16:22:56.583Z,5.54
2019-02-06T16:25:29.136Z,5.44
2019-02-06T16:28:02.966Z,5.37
2019-02-06T16:30:34.166Z,5.33
2019-02-06T16:33:08.767Z,5.27
2019-02-06T16:35:40.932Z,5.15
2019-02-06T16:38:12.787Z,5.14
2019-02-06T16:40:44.577Z,5.11
2019-02-06T16:43:18.427Z,5.11
2019-02-06T16:45:53.347Z,5.08
2019-02-06T16:48:25.618Z,5.08
2019-02-06T16:50:58.502Z,4.94
2019-02-06T16:53:30.289Z,4.85
2019-02-06T16:56:05.210Z,4.75
2019-02-06T16:58:35.928Z,4.74
2019-02-06T17:01:08.912Z,4.69
2019-02-06T17:03:44.689Z,4.71
2019-02-06T17:06:19.702Z,4.72
2019-02-06T17:08:52.389Z,4.63
2019-02-06T17:11:25.515Z,4.71
2019-02-06T17:13:58.390Z,4.57
2019-02-06T17:16:33.097Z,4.44
2019-02-06T17:19:11.277Z,4.40
2019-02-06T17:21:44.127Z,4.42
2019-02-06T17:24:18.858Z,4.47
2019-02-06T17:26:54.080Z,4.52
2019-02-06T17:29:27.892Z,4.43
2019-02-06T17:32:01.616Z,4.39
2019-02-06T17:34:33.554Z,4.39
2019-02-06T17:37:07.878Z,4.47
2019-02-06T17:39:43.466Z,4.36
2019-02-06T17:42:18.013Z,4.32
2019-02-06T17:44:50.779Z,4.25
2019-02-06T17:47:23.924Z,4.08
2019-02-06T17:49:56.017Z,4.02
2019-02-06T17:52:31.960Z,4.03
2019-02-06T17:55:03.887Z,4.01
2019-02-06T17:57:32.294Z,4.06
2019-02-06T18:00:01.096Z,4.01
2019-02-06T18:02:29.454Z,4.00
2019-02-06T18:04:57.790Z,4.09
2019-02-06T18:07:26.192Z,4.02
2019-02-06T18:09:54.601Z,3.96
2019-02-06T18:12:26.996Z,3.96
2019-02-06T18:14:53.358Z,3.89
2019-02-06T18:17:21.740Z,3.81
2019-02-06T18:19:50.234Z,3.71
2019-02-06T18:22:18.755Z,3.66
2019-02-06T18:24:47.479Z,3.61
2019-02-06T18:27:15.927Z,3.58
2019-02-06T18:29:44.517Z,3.51
2019-02-06T18:32:13.236Z,3.46
2019-02-06T18:34:42.123Z,3.34
2019-02-06T18:37:11.665Z,3.36
2019-02-06T18:39:40.034Z,3.47
2019-02-06T18:42:08.539Z,3.45
2019-02-06T18:44:37.105Z,3.47
2019-02-06T18:47:05.589Z,3.41
2019-02-06T18:49:34.102Z,3.39
2019-02-06T18:52:02.935Z,3.41
2019-02-06T18:54:31.344Z,3.30
2019-02-06T18:57:00.970Z,3.19
2019-02-06T18:59:29.440Z,3.13
2019-02-06T19:01:58.022Z,3.09
2019-02-06T19:04:26.507Z,3.00
2019-02-06T19:06:54.945Z,2.98
2019-02-06T19:09:23.576Z,2.93
2019-02-06T19:11:52.198Z,2.89
2019-02-06T19:14:20.967Z,2.86
2019-02-06T19:16:49.827Z,2.87
2019-02-06T19:19:25.063Z,2.87
2019-02-06T19:21:48.614Z,2.76
2019-02-06T19:24:17.893Z,2.70
2019-02-06T19:26:46.410Z,2.56
2019-02-06T19:29:14.881Z,2.55
2019-02-06T19:31:43.987Z,2.47
2019-02-06T19:34:12.449Z,2.47
2019-02-06T19:36:40.917Z,2.39
2019-02-06T19:39:09.578Z,2.38
2019-02-06T19:41:38.094Z,2.31
2019-02-06T19:44:06.782Z,2.32
2019-02-06T19:46:35.280Z,2.32
2019-02-06T19:49:04.333Z,2.32
2019-02-06T19:51:32.794Z,2.28
2019-02-06T19:54:01.760Z,2.23
2019-02-06T19:56:30.272Z,2.19
2019-02-06T19:58:58.698Z,2.17
2019-02-06T20:01:27.144Z,2.25
2019-02-06T20:03:55.584Z,2.27
2019-02-06T20:06:27.812Z,2.33
2019-02-06T20:08:57.178Z,2.31
2019-02-06T20:11:26.142Z,2.24
2019-02-06T20:13:54.572Z,2.14
2019-02-06T20:16:23.014Z,2.06
2019-02-06T20:18:51.462Z,2.03
2019-02-06T20:21:19.908Z,1.99
2019-02-06T20:23:48.358Z,2.04
2019-02-06T20:26:17.943Z,1.98
2019-02-06T20:28:46.436Z,2.00
2019-02-06T20:31:14.907Z,1.97
2019-02-06T20:33:43.333Z,1.95
2019-02-06T20:36:12.073Z,1.86
2019-02-06T20:38:40.615Z,1.84
2019-02-06T20:41:09.192Z,1.81
2019-02-06T20:43:37.538Z,1.80
2019-02-06T20:46:06.194Z,1.80
2019-02-06T20:48:34.662Z,1.77
2019-02-06T20:51:03.189Z,1.79
2019-02-06T20:53:31.723Z,1.78
2019-02-06T20:56:00.072Z,1.77
2019-02-06T20:58:28.501Z,1.70
2019-02-06T21:00:56.933Z,1.68
2019-02-06T21:03:25.714Z,1.69
2019-02-06T21:05:54.018Z,1.72
2019-02-06T21:08:22.388Z,1.78
2019-02-06T21:10:50.888Z,1.70
2019-02-06T21:13:19.696Z,1.59
2019-02-06T21:15:48.218Z,1.76
2019-02-06T21:18:16.581Z,1.69
2019-02-06T21:20:45.215Z,1.72
2019-02-06T21:23:14.069Z,1.73
2019-02-06T21:25:42.496Z,1.66
2019-02-06T21:28:11.677Z,1.67
2019-02-06T21:30:41.748Z,1.71
2019-02-06T21:33:10.212Z,1.82
2019-02-06T21:35:38.939Z,1.73
2019-02-06T21:38:08.208Z,1.76
2019-02-06T21:40:37.346Z,1.71
2019-02-06T21:43:06.728Z,1.73
2019-02-06T21:45:35.470Z,1.62
2019-02-06T21:48:04.694Z,1.50
2019-02-06T21:50:33.022Z,1.53
2019-02-06T21:53:01.362Z,1.46
2019-02-06T21:55:29.772Z,1.29
2019-02-06T21:57:58.166Z,1.19
2019-02-06T22:00:29.193Z,1.35
2019-02-06T22:02:57.525Z,1.26
2019-02-06T22:05:26.502Z,1.37
2019-02-06T22:07:54.910Z,1.34
2019-02-06T22:10:23.581Z,1.22
2019-02-06T22:12:52.204Z,1.24
2019-02-06T22:15:24.277Z,1.22
2019-02-06T22:17:52.795Z,1.24
2019-02-06T22:20:21.298Z,1.16
2019-02-06T22:22:49.831Z,1.15
2019-02-06T22:25:18.461Z,1.19
2019-02-06T22:27:46.908Z,1.23
2019-02-06T22:30:18.613Z,1.24
2019-02-06T22:32:47.217Z,1.12
2019-02-06T22:35:15.749Z,1.16
2019-02-06T22:37:44.475Z,1.18
2019-02-06T22:40:14.531Z,1.11
2019-02-06T22:42:43.292Z,1.06
2019-02-06T22:45:15.923Z,1.11
2019-02-06T22:47:44.398Z,1.11
2019-02-06T22:50:17.122Z,1.06
2019-02-06T22:52:45.645Z,1.05
2019-02-06T22:55:15.464Z,1.10
2019-02-06T22:57:44.010Z,1.07
2019-02-06T23:00:24.020Z,1.15
2019-02-06T23:02:48.314Z,1.13
2019-02-06T23:05:17.017Z,1.06
2019-02-06T23:07:45.365Z,0.96
2019-02-06T23:10:14.461Z,0.95
2019-02-06T23:12:42.884Z,0.98
2019-02-06T23:15:12.253Z,0.94
2019-02-06T23:17:40.612Z,1.01
2019-02-06T23:20:10.536Z,0.95
2019-02-06T23:22:38.905Z,0.82
2019-02-06T23:25:08.457Z,0.71
2019-02-06T23:27:36.845Z,0.64
2019-02-06T23:30:08.537Z,0.64
2019-02-06T23:32:37.468Z,0.68
2019-02-06T23:35:06.156Z,0.58
2019-02-06T23:37:34.515Z,0.73
2019-02-06T23:40:02.889Z,0.77
2019-02-06T23:42:31.243Z,0.89
2019-02-06T23:44:59.586Z,0.84
2019-02-06T23:47:27.960Z,0.83
2019-02-06T23:49:57.176Z,0.81
2019-02-06T23:52:25.636Z,0.82
2019-02-06T23:54:53.967Z,0.83
2019-02-06T23:57:22.346Z,0.86
2019-02-06T23:59:50.676Z,0.94
